Time;durP1;ratioP1;P1;durP2;ratioP2;P2;SDS_P1;SDS_P2;PMS_P1;PMS_P2;Temp;Humidity;BMP_temperature;BMP_pressure;BME280_temperature;BME280_humidity;BME280_pressure;Samples;Min_cycle;Max_cycle;Signal;HPM_P1;HPM_P2
2022/07/13 00:01:49;;;;;;;2.72;2.25;;;18.30;99.90;;;;;;5066467;28;20028;-93
2022/07/13 00:04:15;;;;;;;5.50;3.22;;;18.30;99.90;;;;;;5067638;28;20035;-92
2022/07/13 00:06:40;;;;;;;8.60;3.20;;;18.20;99.90;;;;;;5066649;28;20104;-92
2022/07/13 00:09:06;;;;;;;5.55;2.85;;;18.20;99.90;;;;;;5066159;28;20026;-93
2022/07/13 00:11:32;;;;;;;6.03;2.72;;;18.30;99.90;;;;;;5068964;28;20035;-93
2022/07/13 00:13:57;;;;;;;5.55;2.55;;;18.30;99.90;;;;;;5063758;28;20074;-93
2022/07/13 00:16:23;;;;;;;2.65;2.40;;;18.40;99.90;;;;;;5067187;28;20025;-93
2022/07/13 00:18:49;;;;;;;3.10;2.40;;;18.40;99.90;;;;;;5081145;28;20035;-91
2022/07/13 00:21:14;;;;;;;5.00;2.38;;;18.40;99.90;;;;;;5079454;28;20029;-93
2022/07/13 00:23:40;;;;;;;5.25;2.60;;;18.50;99.90;;;;;;5063160;28;20028;-92
2022/07/13 00:26:06;;;;;;;6.00;2.58;;;18.50;99.90;;;;;;5070268;28;20040;-94
2022/07/13 00:28:32;;;;;;;6.07;2.90;;;18.50;99.90;;;;;;5061620;28;20048;-94
2022/07/13 00:30:58;;;;;;;7.45;2.67;;;18.50;99.90;;;;;;5059492;28;20028;-93
2022/07/13 00:33:23;;;;;;;6.15;2.60;;;18.50;99.90;;;;;;5057377;28;20021;-93
2022/07/13 00:35:49;;;;;;;6.00;2.90;;;18.50;99.90;;;;;;5056892;28;20038;-93
2022/07/13 00:38:15;;;;;;;7.53;2.70;;;18.50;99.90;;;;;;5057129;28;20032;-94
2022/07/13 00:40:40;;;;;;;6.80;2.50;;;18.50;99.90;;;;;;5057483;28;20023;-93
2022/07/13 00:43:06;;;;;;;8.05;2.72;;;18.50;99.90;;;;;;5056861;28;20400;-95
2022/07/13 00:45:32;;;;;;;6.53;2.63;;;18.50;99.90;;;;;;5072543;28;20028;-92
2022/07/13 00:47:58;;;;;;;6.05;3.28;;;18.50;99.90;;;;;;5067982;28;20400;-92
2022/07/13 00:50:25;;;;;;;5.28;2.78;;;18.50;99.90;;;;;;5074870;28;20052;-93
2022/07/13 00:52:51;;;;;;;3.97;2.47;;;18.50;99.90;;;;;;5064987;28;20077;-93
2022/07/13 00:55:17;;;;;;;4.63;2.60;;;18.50;99.90;;;;;;5060924;28;20020;-94
2022/07/13 00:57:43;;;;;;;6.93;3.25;;;18.50;99.90;;;;;;5059561;28;20017;-94
2022/07/13 01:00:12;;;;;;;5.05;2.75;;;18.50;99.90;;;;;;5060993;28;20040;-91
2022/07/13 01:02:38;;;;;;;5.38;2.97;;;18.50;99.90;;;;;;5060598;28;20028;-91
2022/07/13 01:05:04;;;;;;;8.13;3.40;;;18.50;99.90;;;;;;5057936;28;20036;-95
2022/07/13 01:07:32;;;;;;;7.68;3.13;;;18.50;99.90;;;;;;5056289;28;20128;-93
2022/07/13 01:09:58;;;;;;;5.07;2.90;;;18.50;99.90;;;;;;5057054;28;20016;-93
2022/07/13 01:12:28;;;;;;;6.60;3.92;;;18.50;99.90;;;;;;5056700;28;20048;-94
2022/07/13 01:14:54;;;;;;;5.55;3.20;;;18.50;99.90;;;;;;5056030;28;20029;-93
2022/07/13 01:17:20;;;;;;;7.65;4.53;;;18.50;99.90;;;;;;5058019;28;20100;-95
2022/07/13 01:19:46;;;;;;;11.20;3.90;;;18.50;99.90;;;;;;5056684;28;20071;-94
2022/07/13 01:22:16;;;;;;;5.85;4.10;;;18.50;99.90;;;;;;5056230;28;20040;-93
2022/07/13 01:24:44;;;;;;;7.57;3.50;;;18.50;99.90;;;;;;5056628;28;20024;-93
2022/07/13 01:27:10;;;;;;;10.65;4.20;;;18.50;99.90;;;;;;5055632;28;20056;-95
2022/07/13 01:29:35;;;;;;;6.28;3.70;;;18.50;99.90;;;;;;5055425;28;20021;-94
2022/07/13 01:32:01;;;;;;;7.57;4.30;;;18.50;99.90;;;;;;5055928;28;20074;-93
2022/07/13 01:34:27;;;;;;;4.60;3.67;;;18.60;99.90;;;;;;5055770;28;20039;-94
2022/07/13 01:36:54;;;;;;;8.43;3.92;;;18.60;99.90;;;;;;5057295;28;20079;-95
2022/07/13 01:39:20;;;;;;;8.98;4.70;;;18.50;99.90;;;;;;5055951;28;20032;-93
2022/07/13 01:41:46;;;;;;;9.07;4.18;;;18.60;99.90;;;;;;5073483;28;20064;-94
2022/07/13 01:44:14;;;;;;;7.85;4.15;;;18.50;99.90;;;;;;5055536;28;20070;-93
2022/07/13 01:46:39;;;;;;;10.00;4.75;;;18.50;99.90;;;;;;5057770;28;20070;-94
2022/07/13 01:49:05;;;;;;;9.05;4.55;;;18.50;99.90;;;;;;5056099;28;20070;-93
2022/07/13 01:51:31;;;;;;;7.28;4.70;;;18.50;99.90;;;;;;5057652;28;20033;-94
2022/07/13 01:53:57;;;;;;;5.88;4.20;;;18.50;99.90;;;;;;5058337;28;20028;-93
2022/07/13 01:56:22;;;;;;;6.53;4.35;;;18.40;99.90;;;;;;5060170;28;20133;-91
2022/07/13 01:58:48;;;;;;;13.35;5.30;;;18.30;99.90;;;;;;5060562;28;20092;-92
2022/07/13 02:01:14;;;;;;;8.88;4.30;;;18.30;99.90;;;;;;5058581;28;20028;-93
2022/07/13 02:03:40;;;;;;;8.45;4.38;;;18.30;99.90;;;;;;5057338;28;20048;-93
2022/07/13 02:06:06;;;;;;;6.47;4.10;;;18.30;99.90;;;;;;5054817;28;20510;-92
2022/07/13 02:08:31;;;;;;;7.22;4.55;;;18.30;99.90;;;;;;5054811;28;20070;-91
2022/07/13 02:10:57;;;;;;;5.75;3.60;;;18.20;99.90;;;;;;5054477;28;20062;-92
2022/07/13 02:13:23;;;;;;;7.97;4.32;;;18.30;99.90;;;;;;5054402;28;20369;-92
2022/07/13 02:15:49;;;;;;;6.47;3.72;;;18.30;99.90;;;;;;5054358;28;20135;-93
2022/07/13 02:18:15;;;;;;;6.78;4.22;;;18.30;99.90;;;;;;5055353;28;20028;-92
2022/07/13 02:20:42;;;;;;;5.50;3.50;;;18.20;99.90;;;;;;5054748;28;20073;-93
2022/07/13 02:23:07;;;;;;;7.82;4.35;;;18.20;99.90;;;;;;5054888;28;20017;-93
2022/07/13 02:25:34;;;;;;;9.57;4.57;;;18.20;99.90;;;;;;5055557;28;20047;-92
2022/07/13 02:28:00;;;;;;;6.30;4.25;;;18.20;99.90;;;;;;5054475;28;20334;-91
2022/07/13 02:30:26;;;;;;;11.90;4.63;;;18.20;99.90;;;;;;5054570;28;20027;-92
2022/07/13 02:32:52;;;;;;;6.53;4.18;;;18.20;99.90;;;;;;5054496;28;20032;-93
2022/07/13 02:35:17;;;;;;;9.60;4.57;;;18.20;99.90;;;;;;5056640;28;20020;-91
2022/07/13 02:37:43;;;;;;;7.82;4.60;;;18.10;99.90;;;;;;5054746;28;20116;-91
2022/07/13 02:40:10;;;;;;;9.57;4.68;;;18.10;99.90;;;;;;5054694;28;20033;-93
2022/07/13 02:42:36;;;;;;;6.95;4.72;;;18.10;99.90;;;;;;5055028;28;20070;-93
2022/07/13 02:45:03;;;;;;;8.85;4.78;;;18.10;99.90;;;;;;5056518;28;20055;-93
2022/07/13 02:47:29;;;;;;;7.38;4.38;;;18.10;99.90;;;;;;5057631;28;20125;-93
2022/07/13 02:49:55;;;;;;;9.68;5.97;;;18.10;99.90;;;;;;5055137;28;20063;-92
2022/07/13 02:52:21;;;;;;;10.32;5.63;;;18.00;99.90;;;;;;5054514;28;20071;-92
2022/07/13 02:54:47;;;;;;;14.30;6.55;;;18.00;99.90;;;;;;5055393;28;20039;-94
2022/07/13 02:57:12;;;;;;;16.20;5.97;;;18.00;99.90;;;;;;5054109;28;20151;-93
2022/07/13 02:59:38;;;;;;;9.95;6.40;;;18.00;99.90;;;;;;5056886;28;20067;-93
2022/07/13 03:02:06;;;;;;;7.07;4.90;;;18.00;99.90;;;;;;5054854;28;20078;-93
2022/07/13 03:04:33;;;;;;;12.07;5.40;;;17.90;99.90;;;;;;5056902;28;20500;-93
2022/07/13 03:06:59;;;;;;;11.73;6.00;;;17.90;99.90;;;;;;5056677;28;20044;-93
2022/07/13 03:09:24;;;;;;;8.25;5.40;;;17.90;99.90;;;;;;5055064;28;20124;-92
2022/07/13 03:11:50;;;;;;;11.57;6.07;;;17.90;99.90;;;;;;5054671;28;20383;-94
2022/07/13 03:14:16;;;;;;;8.73;5.47;;;17.80;99.90;;;;;;5055547;28;20034;-93
2022/07/13 03:16:43;;;;;;;12.07;5.35;;;17.90;99.90;;;;;;5057143;28;20472;-93
2022/07/13 03:19:09;;;;;;;12.40;5.93;;;17.80;99.90;;;;;;5054825;28;20119;-94
2022/07/13 03:21:35;;;;;;;9.82;5.40;;;17.80;99.90;;;;;;5055359;28;20076;-93
2022/07/13 03:24:01;;;;;;;9.45;6.28;;;17.80;99.90;;;;;;5062907;28;20017;-92
2022/07/13 03:26:29;;;;;;;8.02;5.20;;;17.80;99.90;;;;;;5079065;28;20150;-94
2022/07/13 03:28:55;;;;;;;7.85;4.97;;;17.80;99.90;;;;;;5072454;28;20518;-93
2022/07/13 03:31:21;;;;;;;12.15;5.10;;;17.80;99.90;;;;;;5076618;28;20055;-94
2022/07/13 03:33:47;;;;;;;10.48;5.13;;;17.80;99.90;;;;;;5060020;28;20471;-94
2022/07/13 03:36:13;;;;;;;7.53;4.97;;;17.80;99.90;;;;;;5058450;28;20478;-95
2022/07/13 03:38:39;;;;;;;12.02;6.70;;;17.70;99.90;;;;;;5058201;28;20518;-93
2022/07/13 03:41:05;;;;;;;12.18;6.70;;;17.70;99.90;;;;;;5057769;28;20128;-94
2022/07/13 03:43:30;;;;;;;12.05;6.68;;;17.70;99.90;;;;;;5058034;28;20070;-94
2022/07/13 03:45:57;;;;;;;14.15;7.53;;;17.60;99.90;;;;;;5057908;28;20029;-94
2022/07/13 03:48:22;;;;;;;11.50;7.93;;;17.60;99.90;;;;;;5058337;28;20044;-93
2022/07/13 03:50:49;;;;;;;12.70;7.35;;;17.60;99.90;;;;;;5060761;28;20043;-95
2022/07/13 03:53:15;;;;;;;10.60;6.80;;;17.60;99.90;;;;;;5062133;28;20036;-95
2022/07/13 03:55:42;;;;;;;15.32;5.80;;;17.60;99.90;;;;;;5064672;28;20024;-93
2022/07/13 03:58:08;;;;;;;10.52;4.72;;;17.50;99.90;;;;;;5064048;28;20070;-93
2022/07/13 04:00:34;;;;;;;13.35;4.90;;;17.50;99.90;;;;;;5071055;28;20016;-93
2022/07/13 04:03:00;;;;;;;7.60;4.25;;;17.40;99.90;;;;;;5072734;28;20031;-93
2022/07/13 04:05:26;;;;;;;8.13;2.80;;;17.40;99.90;;;;;;5062079;28;20036;-94
2022/07/13 04:07:52;;;;;;;8.52;3.30;;;17.30;99.90;;;;;;5062694;28;20040;-93
2022/07/13 04:10:21;;;;;;;7.43;2.65;;;17.30;99.90;;;;;;5061422;28;20031;-93
2022/07/13 04:12:48;;;;;;;7.32;2.50;;;17.20;99.90;;;;;;5059280;28;20056;-94
2022/07/13 04:15:14;;;;;;;9.07;3.38;;;17.10;99.90;;;;;;5059458;28;20052;-94
2022/07/13 04:17:41;;;;;;;8.00;2.28;;;17.10;99.90;;;;;;5058163;28;20052;-92
2022/07/13 04:20:07;;;;;;;4.72;2.30;;;17.00;99.90;;;;;;5059250;28;20063;-95
2022/07/13 04:22:33;;;;;;;5.35;1.92;;;17.00;99.90;;;;;;5056849;28;20033;-94
2022/07/13 04:24:59;;;;;;;6.70;1.98;;;16.90;99.90;;;;;;5058707;28;20454;-95
2022/07/13 04:27:25;;;;;;;5.53;1.85;;;16.80;99.90;;;;;;5059185;28;20067;-93
2022/07/13 04:29:51;;;;;;;5.50;1.60;;;16.80;99.90;;;;;;5058911;28;20024;-94
2022/07/13 04:32:16;;;;;;;6.85;2.20;;;16.80;99.90;;;;;;5058592;28;20033;-94
2022/07/13 04:34:42;;;;;;;10.60;3.00;;;16.70;99.90;;;;;;5060334;28;20063;-93
2022/07/13 04:37:08;;;;;;;8.05;2.45;;;16.60;99.90;;;;;;5060786;28;20375;-93
2022/07/13 04:39:33;;;;;;;13.80;3.30;;;16.60;99.90;;;;;;5063593;28;20502;-91
2022/07/13 04:41:59;;;;;;;15.35;2.70;;;16.50;99.90;;;;;;5077168;28;20033;-92
2022/07/13 04:44:29;;;;;;;15.05;3.20;;;16.50;99.90;;;;;;5077881;28;20593;-89
2022/07/13 04:46:54;;;;;;;15.63;2.80;;;16.40;99.90;;;;;;5067396;28;20044;-91
2022/07/13 04:49:20;;;;;;;16.35;3.03;;;16.30;99.90;;;;;;5069375;28;20376;-94
2022/07/13 04:51:48;;;;;;;16.17;2.97;;;16.30;99.90;;;;;;5066085;28;20029;-92
2022/07/13 04:54:18;;;;;;;19.67;3.42;;;16.30;99.90;;;;;;5063808;28;20044;-91
2022/07/13 04:56:43;;;;;;;20.10;2.65;;;16.20;99.90;;;;;;5062493;28;20051;-93
2022/07/13 04:59:10;;;;;;;13.20;2.50;;;16.20;99.90;;;;;;5057532;28;20538;-93
2022/07/13 05:01:35;;;;;;;16.42;3.55;;;16.20;99.90;;;;;;5060098;28;20052;-93
2022/07/13 05:04:02;;;;;;;16.52;3.25;;;16.10;99.90;;;;;;5061653;28;20021;-92
2022/07/13 05:06:27;;;;;;;14.48;2.60;;;16.10;99.90;;;;;;5060202;28;20054;-92
2022/07/13 05:08:53;;;;;;;12.93;2.88;;;16.00;99.90;;;;;;5060402;28;20035;-93
2022/07/13 05:11:19;;;;;;;15.80;3.25;;;16.00;99.90;;;;;;5059237;28;20032;-95
2022/07/13 05:13:45;;;;;;;20.90;3.03;;;15.90;99.90;;;;;;5059600;28;20040;-93
2022/07/13 05:16:11;;;;;;;14.63;2.72;;;15.90;99.90;;;;;;5059374;28;20021;-93
2022/07/13 05:18:37;;;;;;;20.80;3.20;;;15.90;99.90;;;;;;5058530;28;20051;-93
2022/07/13 05:21:04;;;;;;;14.20;3.40;;;15.80;99.90;;;;;;5056958;28;20028;-93
2022/07/13 05:23:31;;;;;;;13.57;2.80;;;15.80;99.90;;;;;;5056425;28;20036;-94
2022/07/13 05:25:57;;;;;;;13.52;2.88;;;15.80;99.90;;;;;;5057609;28;20365;-93
2022/07/13 05:28:23;;;;;;;19.27;2.95;;;15.80;99.90;;;;;;5056737;28;20056;-93
2022/07/13 05:30:50;;;;;;;13.85;2.53;;;15.80;99.90;;;;;;5055730;28;20060;-92
2022/07/13 05:33:20;;;;;;;16.50;2.80;;;15.70;99.90;;;;;;5057419;28;20054;-95
2022/07/13 05:35:46;;;;;;;12.88;2.58;;;15.80;99.90;;;;;;5055464;28;20020;-93
2022/07/13 05:38:12;;;;;;;23.23;3.90;;;15.80;99.90;;;;;;5056507;28;20065;-94
2022/07/13 05:40:38;;;;;;;14.38;2.58;;;15.80;99.90;;;;;;5059234;28;20032;-94
2022/07/13 05:43:05;;;;;;;12.98;2.45;;;15.90;99.90;;;;;;5076863;28;20025;-92
2022/07/13 05:45:30;;;;;;;16.20;2.83;;;15.90;99.90;;;;;;5075218;28;20024;-94
2022/07/13 05:47:56;;;;;;;9.82;1.98;;;15.90;99.90;;;;;;5065905;28;20058;-94
2022/07/13 05:50:22;;;;;;;15.52;2.20;;;15.90;99.90;;;;;;5062775;28;20025;-94
2022/07/13 05:52:48;;;;;;;11.73;2.30;;;15.90;99.90;;;;;;5062877;28;20027;-94
2022/07/13 05:55:13;;;;;;;18.17;2.50;;;15.80;99.90;;;;;;5060873;28;20032;-93
2022/07/13 05:57:39;;;;;;;10.15;2.45;;;15.80;99.90;;;;;;5079332;28;20024;-92
2022/07/13 06:00:10;;;;;;;13.30;2.50;;;15.80;99.90;;;;;;5060274;28;20062;-92
2022/07/13 06:02:37;;;;;;;12.75;2.42;;;15.80;99.90;;;;;;5075980;28;20004;-92
2022/07/13 06:05:03;;;;;;;10.65;1.92;;;15.80;99.90;;;;;;5076202;28;20040;-92
2022/07/13 06:07:28;;;;;;;10.60;3.13;;;15.80;99.90;;;;;;5075858;28;20051;-91
2022/07/13 06:09:58;;;;;;;11.82;2.22;;;15.80;99.90;;;;;;5072001;28;20024;-92
2022/07/13 06:12:25;;;;;;;20.30;2.80;;;15.80;99.90;;;;;;5062809;28;20020;-94
2022/07/13 06:14:52;;;;;;;14.85;2.22;;;15.80;99.90;;;;;;5059405;28;20016;-93
2022/07/13 06:17:18;;;;;;;12.50;2.17;;;15.80;99.90;;;;;;5059061;28;20024;-92
2022/07/13 06:19:45;;;;;;;15.73;2.85;;;15.90;99.90;;;;;;5059594;28;20511;-92
2022/07/13 06:22:11;;;;;;;12.15;1.80;;;15.90;99.90;;;;;;5065724;28;20025;-93
2022/07/13 06:24:37;;;;;;;12.02;1.52;;;15.90;99.90;;;;;;5058503;28;20033;-92
2022/07/13 06:27:02;;;;;;;6.13;1.80;;;15.90;99.90;;;;;;5057623;28;20036;-91
2022/07/13 06:29:28;;;;;;;8.82;1.30;;;16.00;99.90;;;;;;5056502;28;20561;-93
2022/07/13 06:31:54;;;;;;;6.72;1.48;;;15.90;99.90;;;;;;5058960;28;20029;-93
2022/07/13 06:34:19;;;;;;;6.28;1.20;;;15.90;99.90;;;;;;5061523;28;20040;-92
2022/07/13 06:36:45;;;;;;;7.55;1.58;;;15.90;99.90;;;;;;5072023;28;20538;-91
2022/07/13 06:39:11;;;;;;;9.52;1.27;;;15.90;99.90;;;;;;5071826;28;20031;-90
2022/07/13 06:41:37;;;;;;;4.68;1.05;;;16.00;99.90;;;;;;5064820;28;20028;-89
2022/07/13 06:44:02;;;;;;;4.97;1.10;;;16.00;99.90;;;;;;5050334;28;20424;-92
2022/07/13 06:46:28;;;;;;;4.68;1.23;;;16.00;99.90;;;;;;5054792;28;20025;-92
2022/07/13 06:48:54;;;;;;;5.78;1.30;;;16.00;99.90;;;;;;5054001;28;20048;-93
2022/07/13 06:51:20;;;;;;;5.68;1.40;;;16.00;99.60;;;;;;5054566;28;20033;-93
2022/07/13 06:53:46;;;;;;;6.22;1.50;;;16.10;99.10;;;;;;5055746;28;20391;-92
2022/07/13 06:56:11;;;;;;;5.53;1.05;;;16.10;98.70;;;;;;5056452;28;20025;-93
2022/07/13 06:58:37;;;;;;;4.50;1.10;;;16.10;98.40;;;;;;5061806;28;20020;-95
2022/07/13 07:01:04;;;;;;;4.70;0.90;;;16.20;98.20;;;;;;5068438;28;20055;-94
2022/07/13 07:03:29;;;;;;;4.65;0.80;;;16.20;97.90;;;;;;5071729;28;20021;-93
2022/07/13 07:05:56;;;;;;;5.97;1.00;;;16.20;97.30;;;;;;5073795;28;20028;-95
2022/07/13 07:08:22;;;;;;;6.55;1.13;;;16.30;96.90;;;;;;5086743;28;20487;-93
2022/07/13 07:10:48;;;;;;;5.57;1.15;;;16.30;96.70;;;;;;5070042;28;20133;-92
2022/07/13 07:13:14;;;;;;;6.70;1.13;;;16.40;96.40;;;;;;5069490;28;20032;-93
2022/07/13 07:15:40;;;;;;;5.55;1.13;;;16.40;96.10;;;;;;5068892;28;20023;-90
2022/07/13 07:18:06;;;;;;;6.85;1.20;;;16.50;96.00;;;;;;5082978;28;20024;-91
2022/07/13 07:20:33;;;;;;;2.63;0.90;;;16.60;95.80;;;;;;5086749;28;20016;-92
2022/07/13 07:22:59;;;;;;;7.68;1.35;;;16.70;95.50;;;;;;5077074;28;20033;-91
2022/07/13 07:25:25;;;;;;;8.77;1.02;;;16.80;95.20;;;;;;5058508;28;20067;-92
2022/07/13 07:27:51;;;;;;;4.60;1.00;;;16.90;94.50;;;;;;5058603;28;20075;-91
2022/07/13 07:30:17;;;;;;;2.53;0.90;;;16.90;94.20;;;;;;5059494;28;20020;-92
2022/07/13 07:32:43;;;;;;;2.25;0.90;;;17.00;93.70;;;;;;5057986;28;20066;-92
2022/07/13 07:35:09;;;;;;;6.78;1.20;;;17.00;93.20;;;;;;5064338;28;20054;-93
2022/07/13 07:37:38;;;;;;;6.13;0.70;;;16.90;92.80;;;;;;5064158;28;20467;-92
2022/07/13 07:40:05;;;;;;;2.67;0.52;;;17.00;93.00;;;;;;5065235;28;20059;-93
2022/07/13 07:42:31;;;;;;;5.80;1.10;;;17.00;92.60;;;;;;5068426;28;20021;-91
2022/07/13 07:44:57;;;;;;;8.55;1.02;;;17.10;92.30;;;;;;5057042;28;20013;-91
2022/07/13 07:47:25;;;;;;;3.28;0.70;;;17.20;92.30;;;;;;5057086;28;20060;-89
2022/07/13 07:49:52;;;;;;;8.73;1.20;;;17.20;91.80;;;;;;5058683;28;20013;-92
2022/07/13 07:52:20;;;;;;;7.07;1.08;;;17.30;91.50;;;;;;5062142;28;20032;-92
2022/07/13 07:54:47;;;;;;;4.53;0.88;;;17.40;91.40;;;;;;5066841;28;20077;-92
2022/07/13 07:57:16;;;;;;;3.83;1.00;;;17.50;91.30;;;;;;5068920;28;20024;-92
2022/07/13 07:59:42;;;;;;;8.02;1.30;;;17.60;90.90;;;;;;5105154;28;20028;-90
2022/07/13 08:02:09;;;;;;;4.40;1.08;;;17.60;90.50;;;;;;5090528;28;20029;-89
2022/07/13 08:04:35;;;;;;;3.05;1.08;;;17.60;90.20;;;;;;5082341;28;20035;-91
2022/07/13 08:07:01;;;;;;;5.70;1.00;;;17.60;90.10;;;;;;5080647;28;20091;-90
2022/07/13 08:09:27;;;;;;;5.40;1.00;;;17.80;90.10;;;;;;5081278;28;20016;-89
2022/07/13 08:11:52;;;;;;;1.90;0.65;;;17.90;89.90;;;;;;5080780;28;20032;-90
2022/07/13 08:14:19;;;;;;;4.45;1.42;;;18.00;89.10;;;;;;5081580;28;20024;-90
2022/07/13 08:16:44;;;;;;;2.28;0.85;;;18.00;88.10;;;;;;5081879;28;20016;-91
2022/07/13 08:19:10;;;;;;;6.90;1.33;;;18.10;87.70;;;;;;5079894;28;20029;-89
2022/07/13 08:21:36;;;;;;;6.75;1.10;;;18.20;87.40;;;;;;5092089;28;20020;-91
2022/07/13 08:24:02;;;;;;;5.57;1.20;;;18.30;86.80;;;;;;5092821;28;20017;-90
2022/07/13 08:26:29;;;;;;;5.25;1.10;;;18.30;85.90;;;;;;5090873;28;20039;-89
2022/07/13 08:28:58;;;;;;;4.05;1.17;;;18.40;85.70;;;;;;5077971;28;20055;-89
2022/07/13 08:31:24;;;;;;;5.10;1.20;;;18.40;85.00;;;;;;5081126;28;20008;-89
2022/07/13 08:39:21;;;;;;;6.45;1.23;;;18.60;83.70;;;;;;5096887;28;20027;-89
2022/07/13 08:41:48;;;;;;;5.90;1.52;;;18.70;83.10;;;;;;5081117;28;20037;-88
2022/07/13 08:44:15;;;;;;;6.22;1.40;;;18.70;82.60;;;;;;5096695;28;20036;-89
2022/07/13 08:46:41;;;;;;;5.90;1.90;;;18.80;82.40;;;;;;5079501;28;20049;-89
2022/07/13 08:49:08;;;;;;;5.18;1.30;;;18.80;82.10;;;;;;5079621;28;20027;-90
2022/07/13 08:51:34;;;;;;;5.68;1.60;;;18.80;81.70;;;;;;5078065;28;20024;-89
2022/07/13 08:54:04;;;;;;;7.20;1.85;;;18.80;81.00;;;;;;5069334;28;20115;-92
2022/07/13 08:56:30;;;;;;;5.90;1.60;;;18.80;80.30;;;;;;5067003;28;20025;-92
2022/07/13 08:58:56;;;;;;;7.32;2.60;;;18.80;80.40;;;;;;5066142;28;20020;-93
2022/07/13 09:01:22;;;;;;;7.47;1.77;;;18.90;80.20;;;;;;5073581;28;20035;-90
2022/07/13 09:03:48;;;;;;;6.13;1.75;;;18.90;79.40;;;;;;5077874;28;20157;-91
2022/07/13 09:06:39;;;;;;;8.45;2.00;;;19.00;80.10;;;;;;5079753;28;20040;-89
2022/07/13 09:09:33;;;;;;;10.77;2.50;;;19.10;78.80;;;;;;5077811;28;20050;-88
2022/07/13 09:12:20;;;;;;;7.70;2.35;;;19.30;78.70;;;;;;5058564;28;20571;-92
2022/07/13 09:14:54;;;;;;;7.20;2.15;;;19.40;78.00;;;;;;5069659;28;20028;-92
2022/07/13 09:17:34;;;;;;;8.15;2.42;;;19.40;78.20;;;;;;5065537;28;20026;-92
2022/07/13 09:20:21;;;;;;;9.07;2.53;;;19.60;78.30;;;;;;5058353;28;20399;-92
2022/07/13 09:22:56;;;;;;;8.20;2.67;;;19.80;77.70;;;;;;5057798;28;20045;-93
2022/07/13 09:25:37;;;;;;;7.78;3.20;;;19.90;77.30;;;;;;5074961;28;20032;-92
2022/07/13 09:28:06;;;;;;;10.00;2.83;;;20.00;76.30;;;;;;5053485;28;20560;-93
2022/07/13 09:30:36;;;;;;;7.15;2.85;;;20.10;76.20;;;;;;5063032;28;20044;-93
2022/07/13 09:33:03;;;;;;;10.07;2.47;;;20.30;75.40;;;;;;5066522;28;20033;-92
2022/07/13 09:35:49;;;;;;;10.32;3.22;;;20.40;75.00;;;;;;5062852;28;20031;-92
2022/07/13 09:38:30;;;;;;;9.95;3.10;;;20.50;74.60;;;;;;5052748;28;20056;-93
2022/07/13 09:40:56;;;;;;;4.90;2.50;;;20.70;74.20;;;;;;5050882;28;20506;-91
2022/07/13 09:46:09;;;;;;;9.73;3.25;;;21.00;73.10;;;;;;5061549;28;20095;-91
2022/07/13 09:48:38;;;;;;;10.32;2.65;;;21.00;72.30;;;;;;5058440;28;20010;-93
2022/07/13 09:51:07;;;;;;;7.82;2.35;;;21.00;72.20;;;;;;5058261;28;20036;-90
2022/07/13 09:53:34;;;;;;;7.50;2.20;;;21.00;72.00;;;;;;5075372;28;20025;-89
2022/07/13 09:56:01;;;;;;;8.75;2.20;;;21.00;72.00;;;;;;5078380;28;20052;-90
2022/07/13 09:58:31;;;;;;;9.80;2.75;;;21.10;72.00;;;;;;5061562;28;20020;-95
2022/07/13 10:00:59;;;;;;;11.25;2.53;;;21.20;71.50;;;;;;5055966;28;20017;-92
2022/07/13 10:03:25;;;;;;;6.85;2.28;;;21.30;71.20;;;;;;5057842;28;20029;-92
2022/07/13 10:05:55;;;;;;;8.38;1.80;;;21.50;71.10;;;;;;5063031;28;20020;-93
2022/07/13 10:08:22;;;;;;;3.70;1.60;;;21.60;70.30;;;;;;5060431;28;20542;-93
2022/07/13 10:10:48;;;;;;;4.80;1.58;;;21.60;69.70;;;;;;5056227;28;20028;-95
2022/07/13 10:13:15;;;;;;;5.65;2.20;;;21.70;69.30;;;;;;5059750;28;20044;-93
2022/07/13 10:15:41;;;;;;;7.45;2.40;;;21.70;68.50;;;;;;5070780;28;20046;-94
2022/07/13 10:18:16;;;;;;;8.68;2.10;;;21.80;68.10;;;;;;5062964;28;20040;-91
2022/07/13 10:20:54;;;;;;;7.18;1.73;;;21.90;67.40;;;;;;5054167;28;20021;-92
2022/07/13 10:23:37;;;;;;;7.50;1.92;;;22.10;67.00;;;;;;5053201;28;20097;-92
2022/07/13 10:26:03;;;;;;;5.00;1.33;;;22.10;66.50;;;;;;5047854;28;20025;-94
2022/07/13 10:28:29;;;;;;;6.10;1.50;;;22.00;66.20;;;;;;5061769;28;20213;-92
2022/07/13 10:30:55;;;;;;;3.50;1.13;;;22.00;66.50;;;;;;5057017;28;20092;-93
2022/07/13 10:33:26;;;;;;;5.50;1.33;;;21.90;65.80;;;;;;5057964;28;20027;-94
2022/07/13 10:35:54;;;;;;;4.63;1.52;;;21.80;65.60;;;;;;5075950;28;20077;-91
2022/07/13 10:38:22;;;;;;;3.30;1.25;;;21.90;65.80;;;;;;5059923;28;20036;-91
2022/07/13 10:40:48;;;;;;;4.88;1.35;;;22.10;66.10;;;;;;5065259;28;20064;-93
2022/07/13 10:43:15;;;;;;;5.30;1.40;;;22.30;65.80;;;;;;5062524;28;20024;-92
2022/07/13 10:45:48;;;;;;;2.45;1.20;;;22.50;65.60;;;;;;5073794;28;20017;-92
2022/07/13 10:48:18;;;;;;;5.95;1.38;;;22.60;65.40;;;;;;5064593;28;20402;-91
2022/07/13 10:50:45;;;;;;;8.18;1.38;;;22.70;64.80;;;;;;5090983;28;20020;-92
2022/07/13 10:53:12;;;;;;;3.95;1.35;;;22.80;64.30;;;;;;5057922;28;20048;-90
2022/07/13 10:55:47;;;;;;;5.55;1.30;;;22.90;64.00;;;;;;5061021;28;20024;-92
2022/07/13 10:58:32;;;;;;;5.90;1.90;;;23.10;63.40;;;;;;5068514;28;20052;-92
2022/07/13 11:00:59;;;;;;;3.40;1.00;;;23.30;63.00;;;;;;5059646;28;20021;-91
2022/07/13 11:03:35;;;;;;;6.45;1.00;;;23.40;62.00;;;;;;5067055;28;20032;-93
2022/07/13 11:06:08;;;;;;;5.28;1.20;;;23.60;61.70;;;;;;5040743;28;20033;-92
2022/07/13 11:08:34;;;;;;;6.55;1.10;;;23.70;61.30;;;;;;5039300;28;20108;-91
2022/07/13 11:11:13;;;;;;;6.68;1.05;;;23.80;60.90;;;;;;5058202;28;20029;-90
2022/07/13 11:13:40;;;;;;;3.40;1.25;;;24.00;60.40;;;;;;5060694;28;20036;-92
2022/07/13 11:16:08;;;;;;;8.60;1.92;;;23.90;59.80;;;;;;5051026;28;20085;-92
2022/07/13 11:18:38;;;;;;;6.65;1.90;;;23.80;59.80;;;;;;5077190;28;20471;-92
2022/07/13 11:21:05;;;;;;;7.32;1.85;;;23.90;60.50;;;;;;5059942;28;20119;-90
2022/07/13 11:26:59;;;;;;;7.85;1.35;;;24.10;60.50;;;;;;5076448;28;20055;-90
2022/07/13 11:29:55;;;;;;;5.75;1.67;;;24.30;59.60;;;;;;5072561;28;20067;-92
2022/07/13 11:32:21;;;;;;;6.72;2.13;;;24.60;58.60;;;;;;5061688;28;20142;-91
2022/07/13 11:34:47;;;;;;;4.35;1.50;;;24.60;57.40;;;;;;5061389;28;20055;-92
2022/07/13 11:37:13;;;;;;;4.88;2.05;;;24.70;57.30;;;;;;5077972;28;20029;-94
2022/07/13 11:39:39;;;;;;;4.20;1.90;;;24.80;57.40;;;;;;5055309;28;20067;-92
2022/07/13 11:42:08;;;;;;;7.38;1.70;;;25.00;57.30;;;;;;5057227;28;20070;-93
2022/07/13 11:44:36;;;;;;;4.57;1.35;;;25.00;56.90;;;;;;5066979;28;20028;-93
2022/07/13 11:47:09;;;;;;;7.25;1.58;;;25.00;57.00;;;;;;5073942;28;20503;-92
2022/07/13 11:49:49;;;;;;;7.47;1.20;;;25.10;56.80;;;;;;5056697;28;20020;-92
2022/07/13 11:52:25;;;;;;;4.63;1.70;;;25.10;56.30;;;;;;5058679;28;20042;-93
2022/07/13 11:55:05;;;;;;;4.63;1.52;;;25.10;56.00;;;;;;5065522;28;20025;-93
2022/07/13 11:57:32;;;;;;;4.95;1.40;;;25.10;55.30;;;;;;5056765;28;20025;-92
2022/07/13 12:00:09;;;;;;;7.15;1.77;;;25.10;55.40;;;;;;5040598;28;20087;-91
2022/07/13 12:02:39;;;;;;;5.88;1.58;;;25.30;56.10;;;;;;5061438;28;20013;-93
2022/07/13 12:05:08;;;;;;;4.82;1.35;;;25.50;55.90;;;;;;5070284;28;20036;-92
2022/07/13 12:07:34;;;;;;;4.03;1.25;;;25.60;55.60;;;;;;5054416;28;20033;-92
2022/07/13 12:10:05;;;;;;;4.55;1.20;;;25.60;55.60;;;;;;5059449;28;20078;-94
2022/07/13 12:12:36;;;;;;;2.08;1.02;;;25.70;55.20;;;;;;5060055;28;20111;-94
2022/07/13 12:15:03;;;;;;;4.43;0.90;;;25.80;55.10;;;;;;5053149;28;20044;-93
2022/07/13 12:17:39;;;;;;;4.30;1.13;;;25.90;54.80;;;;;;5054555;28;20024;-94
2022/07/13 12:20:16;;;;;;;4.22;0.70;;;26.10;54.50;;;;;;5063752;28;20042;-94
2022/07/13 12:22:56;;;;;;;3.05;0.90;;;26.00;53.60;;;;;;5082587;28;20027;-93
2022/07/13 12:25:34;;;;;;;3.88;0.90;;;26.10;53.30;;;;;;5054968;28;20024;-93
2022/07/13 12:28:02;;;;;;;2.90;0.80;;;26.00;52.50;;;;;;5068672;28;20056;-95
2022/07/13 12:30:31;;;;;;;3.75;0.93;;;26.10;52.70;;;;;;5062945;28;20028;-95
2022/07/13 12:33:11;;;;;;;5.35;0.85;;;26.20;52.70;;;;;;5084855;28;20029;-93
2022/07/13 12:35:41;;;;;;;1.88;0.70;;;26.40;52.60;;;;;;5062269;28;20025;-90
2022/07/13 12:38:12;;;;;;;2.25;0.82;;;26.40;52.00;;;;;;5061219;28;20032;-93
2022/07/13 12:40:55;;;;;;;3.60;0.90;;;26.30;52.20;;;;;;5060543;28;20029;-95
2022/07/13 12:43:31;;;;;;;3.05;0.80;;;26.30;52.20;;;;;;5065276;28;20042;-94
2022/07/13 12:46:06;;;;;;;4.45;0.95;;;26.30;52.70;;;;;;5079200;28;20035;-92
2022/07/13 12:48:33;;;;;;;2.85;0.90;;;26.20;52.60;;;;;;5075379;28;20013;-90
2022/07/13 12:51:00;;;;;;;1.92;0.90;;;26.30;53.00;;;;;;5080447;28;20056;-90
2022/07/13 12:53:50;;;;;;;1.65;0.63;;;26.40;52.90;;;;;;5077223;28;20010;-91
2022/07/13 12:56:20;;;;;;;2.85;0.80;;;26.40;52.20;;;;;;5079630;28;20020;-94
2022/07/13 12:58:49;;;;;;;1.58;0.63;;;26.50;52.00;;;;;;5074927;28;20025;-94
2022/07/13 13:01:31;;;;;;;2.53;1.15;;;26.60;51.50;;;;;;5067582;28;20043;-94